Granby Valley, Vermont
Current Conditions -  °F | °C
As of 9:55 PM on Sunday 23 Nov 2014 (Local Time) from KCDA Reporting Station
Haze Haze  
Wind Chill: 37°   Ceiling: 3400
Heat Index: 37°   Visibility: 0.75mi
Dew Point: 35°   Wind: 0mph
Humidity: 93%   Direction: NA
Pressure: 30.06"   Gusts: NA
Location:  44.5627°N, 71.7775°W
Report Text: KCDA 240255Z AUTO 00000KT 3/4SM BR BKN034 OVC050 03/02 A3006 RMK AO2 T00260015
Loading
Personal Weather Stations






























Interactive Weather Map New forecast layout! Learn more

10-Day Weather Forecast

Advertisements
Track Severe Weather on mobile